createdAt,value
2017-05-30T00:01:30.424Z,8.70
2017-05-30T00:03:58.987Z,8.10
2017-05-30T00:06:27.285Z,8.44
2017-05-30T00:08:55.587Z,8.98
2017-05-30T00:11:24.339Z,8.38
2017-05-30T00:13:52.648Z,8.74
2017-05-30T00:16:20.941Z,8.34
2017-05-30T00:18:49.467Z,8.18
2017-05-30T00:21:17.779Z,8.76
2017-05-30T00:23:46.080Z,8.96
2017-05-30T00:26:14.622Z,8.80
2017-05-30T00:28:42.942Z,8.42
2017-05-30T00:31:11.244Z,9.34
2017-05-30T00:33:39.798Z,9.04
2017-05-30T00:36:08.109Z,9.58
2017-05-30T00:38:36.429Z,9.82
2017-05-30T00:41:05.070Z,9.36
2017-05-30T00:43:33.374Z,8.86
2017-05-30T00:46:01.673Z,9.72
2017-05-30T00:48:30.198Z,9.08
2017-05-30T00:50:58.500Z,9.64
2017-05-30T00:53:26.806Z,8.52
2017-05-30T00:55:55.508Z,9.36
2017-05-30T00:58:23.809Z,8.78
2017-05-30T01:00:52.103Z,9.34
2017-05-30T01:03:20.651Z,8.26
2017-05-30T01:05:49.005Z,9.34
2017-05-30T01:08:17.308Z,8.58
2017-05-30T01:10:45.850Z,9.50
2017-05-30T01:13:14.166Z,9.62
2017-05-30T01:15:42.481Z,8.90
2017-05-30T01:18:11.003Z,8.88
2017-05-30T01:20:39.292Z,8.02
2017-05-30T01:23:07.589Z,9.20
2017-05-30T01:25:36.117Z,8.34
2017-05-30T01:28:04.423Z,8.16
2017-05-30T01:30:32.730Z,7.60
2017-05-30T01:33:01.248Z,7.80
2017-05-30T01:35:29.555Z,8.02
2017-05-30T01:37:57.863Z,7.68
2017-05-30T01:40:26.388Z,7.20
2017-05-30T01:42:54.695Z,7.94
2017-05-30T01:45:23.011Z,8.36
2017-05-30T01:47:51.539Z,8.92
2017-05-30T01:50:19.827Z,9.00
2017-05-30T01:52:48.144Z,8.14
2017-05-30T01:55:16.688Z,8.18
2017-05-30T01:57:44.974Z,8.40
2017-05-30T02:00:13.298Z,8.40
2017-05-30T02:02:41.836Z,8.00
2017-05-30T02:05:10.156Z,8.20
2017-05-30T02:07:38.461Z,7.82
2017-05-30T02:10:06.979Z,8.06
2017-05-30T02:12:35.274Z,7.66
2017-05-30T02:15:03.575Z,8.36
2017-05-30T02:17:32.105Z,8.68
2017-05-30T02:20:00.465Z,9.60
2017-05-30T02:22:28.755Z,8.28
2017-05-30T02:24:57.333Z,9.26
2017-05-30T02:27:25.655Z,8.26
2017-05-30T02:29:53.958Z,9.14
2017-05-30T02:32:22.491Z,9.34
2017-05-30T02:34:50.784Z,8.94
2017-05-30T02:37:19.083Z,8.48
2017-05-30T02:39:47.603Z,7.74
2017-05-30T02:42:15.892Z,8.66
2017-05-30T02:44:44.209Z,8.40
2017-05-30T02:47:12.742Z,8.78
2017-05-30T02:49:41.053Z,7.94
2017-05-30T02:52:09.368Z,8.54
2017-05-30T02:54:37.872Z,7.64
2017-05-30T02:57:06.200Z,7.88
2017-05-30T02:59:34.506Z,8.10
2017-05-30T03:02:03.043Z,9.34
2017-05-30T03:04:31.342Z,8.62
2017-05-30T03:06:59.643Z,8.32
2017-05-30T03:09:28.189Z,8.12
2017-05-30T03:11:56.505Z,8.70
2017-05-30T03:14:24.822Z,9.28
2017-05-30T03:16:53.337Z,8.90
2017-05-30T03:19:21.659Z,9.00
2017-05-30T03:21:49.959Z,7.74
2017-05-30T03:24:18.490Z,8.44
2017-05-30T03:26:46.795Z,9.20
2017-05-30T03:29:15.127Z,7.88
2017-05-30T03:31:43.853Z,8.28
2017-05-30T03:34:12.163Z,8.96
2017-05-30T03:36:40.451Z,8.12
2017-05-30T03:39:09.051Z,8.68
2017-05-30T03:41:37.368Z,9.82
2017-05-30T03:44:05.675Z,7.98
2017-05-30T03:46:34.213Z,9.18
2017-05-30T03:49:02.515Z,8.76
2017-05-30T03:51:30.813Z,8.36
2017-05-30T03:53:59.413Z,9.02
2017-05-30T03:56:27.709Z,9.14
2017-05-30T03:58:56.001Z,8.76
2017-05-30T04:01:24.633Z,8.54
2017-05-30T04:03:52.935Z,8.52
2017-05-30T04:06:21.235Z,8.52
2017-05-30T04:08:49.756Z,8.72
2017-05-30T04:11:18.054Z,8.78
2017-05-30T04:13:46.369Z,8.30
2017-05-30T04:16:14.968Z,9.12
2017-05-30T04:18:43.255Z,8.52
2017-05-30T04:21:11.556Z,8.12
2017-05-30T04:23:40.093Z,8.76
2017-05-30T04:26:08.390Z,9.46
2017-05-30T04:28:36.704Z,11.98
2017-05-30T04:31:05.324Z,12.74
2017-05-30T04:33:33.625Z,12.00
2017-05-30T04:36:01.931Z,11.40
2017-05-30T04:38:30.476Z,9.68
2017-05-30T04:40:58.014Z,8.38
2017-05-30T04:43:26.314Z,9.08
2017-05-30T04:45:54.834Z,8.36
2017-05-30T04:48:23.131Z,8.28
2017-05-30T04:50:51.424Z,7.50
2017-05-30T04:53:19.937Z,8.50
2017-05-30T04:55:48.253Z,7.20
2017-05-30T04:58:16.543Z,8.58
2017-05-30T05:00:45.060Z,7.80
2017-05-30T05:03:13.344Z,7.72
2017-05-30T05:05:41.644Z,8.26
2017-05-30T05:08:10.236Z,9.74
2017-05-30T05:10:38.544Z,7.92
2017-05-30T05:13:06.834Z,7.72
2017-05-30T05:15:35.366Z,8.54
2017-05-30T05:18:03.665Z,9.02
2017-05-30T05:20:32.633Z,8.40
2017-05-30T05:23:01.144Z,8.54
2017-05-30T05:25:29.444Z,8.30
2017-05-30T05:27:57.748Z,8.14
2017-05-30T05:30:26.289Z,7.38
2017-05-30T05:32:54.614Z,8.06
2017-05-30T05:35:22.907Z,7.98
2017-05-30T05:37:51.484Z,7.14
2017-05-30T05:40:19.778Z,6.78
2017-05-30T05:42:48.064Z,7.62
2017-05-30T05:45:16.570Z,7.36
2017-05-30T05:47:44.870Z,7.80
2017-05-30T05:50:13.197Z,8.18
2017-05-30T05:52:41.720Z,7.26
2017-05-30T05:55:10.026Z,7.88
2017-05-30T05:57:38.335Z,7.68
2017-05-30T06:00:06.870Z,7.18
2017-05-30T06:02:35.169Z,7.74
2017-05-30T06:05:03.476Z,8.60
2017-05-30T06:07:32.178Z,6.88
2017-05-30T06:10:00.482Z,7.38
2017-05-30T06:12:28.798Z,7.90
2017-05-30T06:14:57.317Z,7.66
2017-05-30T06:17:25.621Z,7.84
2017-05-30T06:19:53.941Z,7.20
2017-05-30T06:22:22.540Z,7.98
2017-05-30T06:24:50.858Z,7.98
2017-05-30T06:27:18.387Z,8.20
2017-05-30T06:29:46.941Z,8.24
2017-05-30T06:32:15.246Z,8.10
2017-05-30T06:34:43.566Z,8.54
2017-05-30T06:37:12.090Z,7.84
2017-05-30T06:39:40.388Z,10.22
2017-05-30T06:42:08.702Z,9.80
2017-05-30T06:44:37.219Z,9.42
2017-05-30T06:47:05.542Z,9.48
2017-05-30T06:49:35.179Z,9.16
2017-05-30T06:52:05.219Z,10.30
2017-05-30T06:57:08.744Z,10.26
2017-05-30T06:59:37.114Z,10.18
2017-05-30T07:02:05.481Z,9.70
2017-05-30T07:04:34.213Z,10.12
2017-05-30T07:07:02.547Z,11.14
2017-05-30T07:09:30.852Z,11.28
2017-05-30T07:11:59.405Z,10.94
2017-05-30T07:14:27.701Z,10.22
2017-05-30T07:16:56.010Z,11.02
2017-05-30T07:19:24.531Z,10.90
2017-05-30T07:21:52.833Z,11.78
2017-05-30T07:24:21.132Z,12.16
2017-05-30T07:26:49.669Z,10.18
2017-05-30T07:29:20.812Z,10.90
2017-05-30T07:31:49.128Z,11.12
2017-05-30T07:34:17.663Z,10.70
2017-05-30T07:36:45.989Z,13.80
2017-05-30T07:39:14.288Z,14.40
2017-05-30T07:41:42.821Z,14.52
2017-05-30T07:44:11.127Z,14.66
2017-05-30T07:46:39.421Z,15.16
2017-05-30T07:49:08.574Z,14.66
2017-05-30T07:51:36.876Z,14.50
2017-05-30T07:54:05.160Z,14.46
2017-05-30T07:56:33.897Z,15.36
2017-05-30T07:59:02.210Z,13.36
2017-05-30T08:01:30.513Z,12.82
2017-05-30T08:03:59.192Z,14.32
2017-05-30T08:06:27.510Z,14.56
2017-05-30T08:08:55.812Z,14.48
2017-05-30T08:11:24.417Z,14.20
2017-05-30T08:13:52.707Z,14.38
2017-05-30T08:16:21.023Z,13.40
2017-05-30T08:18:49.647Z,14.54
2017-05-30T08:21:17.959Z,13.52
2017-05-30T08:23:46.263Z,13.36
2017-05-30T08:26:15.298Z,13.82
2017-05-30T08:28:43.609Z,12.40
2017-05-30T08:31:11.911Z,15.40
2017-05-30T08:33:40.444Z,15.46
2017-05-30T08:36:08.766Z,14.42
2017-05-30T08:38:37.085Z,15.08
2017-05-30T08:41:05.625Z,13.96
2017-05-30T08:43:33.920Z,12.82
2017-05-30T08:46:02.238Z,12.80
2017-05-30T08:48:30.866Z,13.58
2017-05-30T08:50:59.194Z,12.60
2017-05-30T08:53:27.515Z,13.08
2017-05-30T08:55:56.223Z,13.46
2017-05-30T08:58:24.537Z,12.18
2017-05-30T09:00:52.848Z,13.62
2017-05-30T09:03:21.377Z,13.06
2017-05-30T09:05:49.700Z,12.74
2017-05-30T09:08:18.031Z,12.60
2017-05-30T09:10:46.572Z,13.00
2017-05-30T09:13:14.872Z,10.86
2017-05-30T09:15:43.187Z,11.80
2017-05-30T09:18:11.719Z,11.40
2017-05-30T09:20:40.537Z,12.78
2017-05-30T09:23:09.286Z,12.22
2017-05-30T09:25:37.836Z,13.46
2017-05-30T09:28:06.145Z,13.02
2017-05-30T09:30:34.444Z,14.08
2017-05-30T09:33:03.091Z,12.30
2017-05-30T09:35:31.397Z,13.16
2017-05-30T09:37:59.704Z,12.74
2017-05-30T09:40:28.233Z,13.48
2017-05-30T09:42:56.556Z,12.38
2017-05-30T09:45:24.848Z,12.12
2017-05-30T09:47:53.450Z,11.00
2017-05-30T09:50:21.761Z,11.32
2017-05-30T09:52:49.541Z,11.32
2017-05-30T09:55:17.889Z,12.40
2017-05-30T09:57:46.212Z,12.18
2017-05-30T10:00:14.767Z,11.90
2017-05-30T10:02:43.074Z,11.64
2017-05-30T10:05:11.394Z,10.92
2017-05-30T10:07:40.157Z,9.86
2017-05-30T10:10:08.448Z,9.54
2017-05-30T10:12:36.785Z,9.94
2017-05-30T10:15:05.311Z,10.12
2017-05-30T10:17:33.612Z,8.48
2017-05-30T10:20:01.937Z,8.06
2017-05-30T10:22:30.463Z,8.00
2017-05-30T10:24:58.769Z,8.82
2017-05-30T10:27:27.076Z,8.86
2017-05-30T10:29:55.607Z,9.26
2017-05-30T10:32:23.906Z,9.16
2017-05-30T10:34:52.233Z,8.94
2017-05-30T10:37:20.962Z,9.62
2017-05-30T10:39:49.288Z,9.56
2017-05-30T10:42:17.863Z,8.42
2017-05-30T10:44:46.487Z,9.66
2017-05-30T10:47:14.832Z,10.14
2017-05-30T10:49:43.167Z,9.96
2017-05-30T10:52:10.952Z,10.26
2017-05-30T10:54:39.325Z,9.50
2017-05-30T10:57:07.699Z,10.44
2017-05-30T10:59:36.312Z,8.92
2017-05-30T11:02:04.619Z,7.66
2017-05-30T11:04:32.935Z,8.02
2017-05-30T11:07:01.670Z,7.70
2017-05-30T11:09:29.975Z,7.56
2017-05-30T11:11:58.348Z,7.76
2017-05-30T11:14:27.243Z,6.92
2017-05-30T11:16:55.590Z,7.36
2017-05-30T11:19:23.889Z,8.34
2017-05-30T11:21:52.538Z,6.54
2017-05-30T11:24:20.851Z,8.24
2017-05-30T11:26:49.143Z,7.44
2017-05-30T11:29:17.750Z,7.90
2017-05-30T11:31:46.095Z,7.66
2017-05-30T11:34:14.383Z,7.62
2017-05-30T11:36:42.229Z,7.32
2017-05-30T11:39:10.556Z,6.92
2017-05-30T11:41:38.874Z,6.50
2017-05-30T11:44:06.662Z,6.10
2017-05-30T11:46:34.960Z,5.78
2017-05-30T11:49:03.253Z,5.94
2017-05-30T11:51:31.852Z,5.46
2017-05-30T11:54:00.163Z,4.44
2017-05-30T11:56:28.484Z,4.42
2017-05-30T11:58:57.016Z,4.76
2017-05-30T12:01:24.556Z,4.74
2017-05-30T12:03:52.854Z,5.46
2017-05-30T12:06:21.506Z,4.92
2017-05-30T12:08:49.804Z,4.72
2017-05-30T12:11:18.133Z,4.22
2017-05-30T12:13:46.735Z,5.06
2017-05-30T12:16:15.058Z,4.90
2017-05-30T12:18:43.346Z,4.96
2017-05-30T12:21:11.972Z,4.80
2017-05-30T12:23:40.275Z,4.30
2017-05-30T12:26:08.700Z,5.38
2017-05-30T12:28:37.214Z,4.70
2017-05-30T12:31:05.529Z,4.66
2017-05-30T12:33:33.834Z,4.82
2017-05-30T12:36:02.391Z,5.00
2017-05-30T12:38:30.686Z,4.84
2017-05-30T12:40:58.991Z,4.86
2017-05-30T12:43:27.581Z,3.98
2017-05-30T12:45:55.865Z,4.30
2017-05-30T12:48:24.179Z,3.70
2017-05-30T12:50:53.021Z,4.30
2017-05-30T12:53:21.325Z,3.84
2017-05-30T12:55:49.640Z,4.04
2017-05-30T12:58:17.401Z,4.20
2017-05-30T13:00:45.697Z,4.10
2017-05-30T13:03:14.004Z,4.76
2017-05-30T13:05:42.597Z,3.92
2017-05-30T13:08:10.958Z,3.80
2017-05-30T13:10:39.276Z,4.18
2017-05-30T13:13:07.097Z,3.72
2017-05-30T13:15:35.415Z,4.10
2017-05-30T13:18:04.010Z,3.74
2017-05-30T13:20:32.410Z,3.98
2017-05-30T13:23:00.713Z,4.36
2017-05-30T13:25:29.237Z,3.90
2017-05-30T13:27:57.572Z,4.30
2017-05-30T13:30:25.934Z,3.96
2017-05-30T13:32:54.570Z,3.60
2017-05-30T13:35:22.890Z,4.00
2017-05-30T13:37:51.190Z,3.70
2017-05-30T13:40:19.807Z,3.82
2017-05-30T13:42:48.103Z,3.82
2017-05-30T13:45:16.407Z,4.30
2017-05-30T13:47:44.937Z,4.04
2017-05-30T13:50:13.247Z,3.38
2017-05-30T13:52:41.559Z,3.78
2017-05-30T13:55:10.343Z,3.76
2017-05-30T13:57:38.634Z,3.46
2017-05-30T14:00:06.960Z,3.94
2017-05-30T14:02:35.585Z,3.66
2017-05-30T14:05:03.893Z,3.88
2017-05-30T14:07:32.205Z,3.78
2017-05-30T14:10:01.239Z,3.20
2017-05-30T14:12:29.551Z,4.02
2017-05-30T14:14:57.870Z,3.62
2017-05-30T14:17:26.477Z,5.00
2017-05-30T14:19:54.785Z,3.68
2017-05-30T14:22:23.089Z,3.50
2017-05-30T14:24:51.699Z,3.88
2017-05-30T14:27:20.008Z,3.26
2017-05-30T14:29:48.312Z,3.60
2017-05-30T14:32:16.940Z,3.54
2017-05-30T14:34:45.266Z,3.42
2017-05-30T14:37:13.601Z,2.92
2017-05-30T14:39:42.186Z,3.34
2017-05-30T14:42:10.501Z,3.16
2017-05-30T14:44:38.830Z,2.66
2017-05-30T14:47:07.425Z,2.58
2017-05-30T14:49:35.740Z,2.96
2017-05-30T14:52:04.039Z,2.62
2017-05-30T14:54:32.658Z,2.76
2017-05-30T14:57:00.972Z,3.14
2017-05-30T14:59:29.288Z,2.70
2017-05-30T15:01:57.893Z,2.74
2017-05-30T15:04:26.225Z,2.96
2017-05-30T15:06:54.539Z,2.40
2017-05-30T15:09:23.168Z,3.58
2017-05-30T15:11:51.485Z,2.70
2017-05-30T15:14:19.786Z,2.70
2017-05-30T15:16:48.595Z,2.96
2017-05-30T15:19:16.943Z,3.16
2017-05-30T15:21:45.246Z,3.12
2017-05-30T15:24:13.826Z,3.50
2017-05-30T15:26:41.361Z,2.64
2017-05-30T15:29:09.667Z,3.56
2017-05-30T15:31:38.263Z,3.02
2017-05-30T15:34:06.578Z,3.34
2017-05-30T15:36:35.201Z,2.72
2017-05-30T15:39:03.782Z,4.00
2017-05-30T15:41:31.306Z,3.48
2017-05-30T15:43:59.619Z,3.02
2017-05-30T15:46:28.323Z,3.60
2017-05-30T15:48:56.626Z,3.12
2017-05-30T15:51:24.927Z,2.80
2017-05-30T15:53:53.543Z,3.80
2017-05-30T15:56:21.850Z,3.58
2017-05-30T15:58:50.160Z,3.26
2017-05-30T16:01:18.705Z,3.16
2017-05-30T16:03:47.006Z,4.02
2017-05-30T16:06:15.318Z,3.66
2017-05-30T16:08:43.903Z,3.08
2017-05-30T16:11:12.234Z,3.00
2017-05-30T16:13:40.980Z,3.38
2017-05-30T16:16:09.319Z,3.02
2017-05-30T16:18:37.642Z,3.70
2017-05-30T16:21:06.189Z,3.40
2017-05-30T16:23:34.536Z,3.20
2017-05-30T16:26:02.858Z,2.96
2017-05-30T16:28:33.585Z,3.26
2017-05-30T16:31:01.923Z,3.76
2017-05-30T16:33:30.224Z,3.30
2017-05-30T16:35:58.810Z,3.90
2017-05-30T16:38:27.106Z,3.42
2017-05-30T16:40:55.415Z,3.62
2017-05-30T16:43:24.050Z,3.52
2017-05-30T16:45:51.598Z,3.16
2017-05-30T16:48:19.897Z,3.40
2017-05-30T16:50:48.640Z,3.80
2017-05-30T16:53:16.986Z,3.24
2017-05-30T16:55:45.291Z,4.10
2017-05-30T16:58:14.078Z,4.08
2017-05-30T17:00:42.389Z,3.24
2017-05-30T17:03:10.708Z,4.00
2017-05-30T17:05:39.310Z,3.50
2017-05-30T17:08:07.625Z,3.62
2017-05-30T17:10:35.953Z,3.78
2017-05-30T17:13:05.407Z,3.80
2017-05-30T17:15:33.702Z,3.56
2017-05-30T17:18:02.017Z,4.24
2017-05-30T17:20:30.341Z,4.00
2017-05-30T17:22:58.663Z,3.84
2017-05-30T17:25:27.016Z,4.24
2017-05-30T17:27:55.323Z,3.90
2017-05-30T17:30:23.643Z,4.12
2017-05-30T17:32:51.217Z,3.78
2017-05-30T17:35:19.540Z,3.88
2017-05-30T17:37:48.144Z,4.06
2017-05-30T17:40:16.469Z,4.10
2017-05-30T17:42:44.029Z,3.94
2017-05-30T17:45:12.634Z,3.54
2017-05-30T17:47:40.975Z,3.96
2017-05-30T17:50:09.299Z,3.52
2017-05-30T17:52:38.091Z,3.72
2017-05-30T17:55:06.406Z,4.24
2017-05-30T17:57:34.720Z,3.90
2017-05-30T18:00:03.054Z,4.18
2017-05-30T18:02:31.445Z,4.80
2017-05-30T18:04:59.871Z,3.82
2017-05-30T18:07:27.728Z,4.12
2017-05-30T18:09:56.077Z,3.64
2017-05-30T18:12:24.398Z,4.84
2017-05-30T18:14:52.714Z,3.88
2017-05-30T18:17:20.255Z,4.50
2017-05-30T18:19:48.906Z,4.20
2017-05-30T18:22:17.230Z,4.56
2017-05-30T18:24:44.829Z,4.46
2017-05-30T18:27:13.169Z,4.48
2017-05-30T18:29:41.496Z,3.88
2017-05-30T18:32:09.819Z,3.80
2017-05-30T18:34:38.605Z,4.84
2017-05-30T18:37:07.035Z,4.28
2017-05-30T18:39:35.392Z,4.82
2017-05-30T18:42:04.412Z,4.44
2017-05-30T18:44:32.763Z,4.76
2017-05-30T18:47:04.032Z,4.32
2017-05-30T18:49:32.573Z,4.82
2017-05-30T18:52:00.986Z,4.50
2017-05-30T18:54:29.817Z,5.18
2017-05-30T18:56:58.264Z,5.40
2017-05-30T18:59:26.710Z,5.36
2017-05-30T19:01:55.051Z,5.60
2017-05-30T19:04:23.409Z,5.44
2017-05-30T19:06:52.043Z,5.82
2017-05-30T19:09:20.388Z,5.22
2017-05-30T19:11:48.961Z,5.30
2017-05-30T19:14:17.299Z,5.60
2017-05-30T19:16:45.659Z,5.12
2017-05-30T19:19:14.035Z,5.44
2017-05-30T19:21:43.022Z,5.34
2017-05-30T19:24:12.468Z,5.80
2017-05-30T19:26:41.055Z,5.44
2017-05-30T19:29:10.734Z,5.22
2017-05-30T19:31:39.061Z,5.60
2017-05-30T19:34:06.613Z,5.92
2017-05-30T19:36:34.948Z,5.98
2017-05-30T19:39:03.251Z,5.86
2017-05-30T19:41:31.583Z,6.30
2017-05-30T19:43:59.886Z,6.38
2017-05-30T19:46:27.660Z,6.30
2017-05-30T19:48:55.971Z,6.36
2017-05-30T19:51:24.294Z,6.48
2017-05-30T19:53:52.945Z,6.42
2017-05-30T19:56:21.258Z,6.48
2017-05-30T19:58:49.572Z,7.18
2017-05-30T20:01:17.141Z,7.76
2017-05-30T20:03:45.481Z,6.96
2017-05-30T20:06:14.105Z,7.06
2017-05-30T20:08:42.409Z,6.88
2017-05-30T20:11:10.745Z,8.26
2017-05-30T20:13:39.115Z,7.30
2017-05-30T20:16:07.479Z,6.74
2017-05-30T20:18:36.568Z,7.10
2017-05-30T20:21:04.896Z,7.18
2017-05-30T20:23:33.209Z,6.00
2017-05-30T20:26:01.582Z,6.44
2017-05-30T20:28:29.893Z,5.88
2017-05-30T20:30:58.241Z,6.26
2017-05-30T20:33:26.589Z,6.00
2017-05-30T20:35:54.948Z,5.86
2017-05-30T20:38:23.304Z,5.82
2017-05-30T20:40:51.621Z,6.16
2017-05-30T20:43:19.983Z,6.34
2017-05-30T20:45:48.354Z,6.28
2017-05-30T20:48:16.744Z,5.64
2017-05-30T20:50:45.335Z,5.96
2017-05-30T20:53:14.030Z,5.68
2017-05-30T20:55:42.829Z,5.96
2017-05-30T20:58:12.146Z,4.82
2017-05-30T21:00:41.538Z,6.14
2017-05-30T21:03:09.942Z,5.52
2017-05-30T21:05:38.702Z,5.12
2017-05-30T21:08:07.146Z,5.04
2017-05-30T21:10:35.582Z,4.42
2017-05-30T21:13:04.475Z,4.48
2017-05-30T21:15:32.773Z,4.32
2017-05-30T21:18:01.113Z,4.70
2017-05-30T21:20:29.640Z,4.92
2017-05-30T21:22:57.997Z,4.00
2017-05-30T21:25:26.302Z,4.42
2017-05-30T21:27:54.641Z,4.38
2017-05-30T21:30:22.955Z,5.30
2017-05-30T21:32:51.326Z,3.94
2017-05-30T21:35:19.627Z,4.98
2017-05-30T21:37:48.157Z,4.92
2017-05-30T21:40:16.487Z,4.60
2017-05-30T21:42:44.810Z,3.98
2017-05-30T21:45:13.147Z,4.36
2017-05-30T21:47:41.456Z,4.86
2017-05-30T21:50:10.073Z,4.16
2017-05-30T21:52:38.373Z,4.50
2017-05-30T21:55:06.657Z,4.44
2017-05-30T21:57:34.995Z,4.10
2017-05-30T22:00:03.308Z,4.62
2017-05-30T22:02:31.665Z,5.58
2017-05-30T22:04:59.958Z,5.00
2017-05-30T22:07:28.265Z,4.60
2017-05-30T22:09:57.485Z,5.66
2017-05-30T22:12:25.065Z,4.54
2017-05-30T22:14:53.354Z,4.50
2017-05-30T22:17:21.688Z,4.82
2017-05-30T22:19:50.045Z,4.68
2017-05-30T22:22:18.342Z,4.58
2017-05-30T22:24:46.651Z,4.26
2017-05-30T22:27:14.987Z,4.30
2017-05-30T22:29:43.317Z,4.38
2017-05-30T22:32:11.619Z,4.60
2017-05-30T22:34:39.930Z,3.84
2017-05-30T22:37:08.233Z,3.86
2017-05-30T22:39:36.543Z,3.94
2017-05-30T22:42:04.851Z,4.00
2017-05-30T22:44:33.164Z,3.90
2017-05-30T22:47:01.491Z,4.52
2017-05-30T22:49:29.783Z,4.78
2017-05-30T22:51:58.109Z,4.42
2017-05-30T22:54:26.424Z,4.18
2017-05-30T22:56:54.777Z,3.84
2017-05-30T22:59:23.076Z,4.12
2017-05-30T23:01:51.743Z,4.20
2017-05-30T23:04:20.054Z,5.08
2017-05-30T23:06:48.351Z,3.70
2017-05-30T23:09:16.669Z,3.82
2017-05-30T23:11:44.966Z,4.62
2017-05-30T23:14:13.255Z,4.16
2017-05-30T23:16:41.786Z,4.04
2017-05-30T23:19:10.085Z,3.96
2017-05-30T23:21:38.382Z,3.70
2017-05-30T23:24:06.703Z,3.98
2017-05-30T23:26:34.995Z,4.46
2017-05-30T23:29:03.303Z,3.56
2017-05-30T23:31:31.586Z,4.04
2017-05-30T23:33:59.887Z,4.50
2017-05-30T23:36:28.181Z,4.16
2017-05-30T23:38:56.496Z,4.32
2017-05-30T23:41:24.796Z,4.34
2017-05-30T23:43:53.118Z,3.96
2017-05-30T23:46:21.405Z,4.00
2017-05-30T23:48:49.736Z,4.04
2017-05-30T23:51:18.060Z,4.46
2017-05-30T23:53:45.594Z,4.58
2017-05-30T23:56:13.917Z,3.80
2017-05-30T23:58:42.228Z,4.18
